Time;durP1;ratioP1;P1;durP2;ratioP2;P2;SDS_P1;SDS_P2;PMS_P1;PMS_P2;Temp;Humidity;BMP_temperature;BMP_pressure;BME280_temperature;BME280_humidity;BME280_pressure;Samples;Min_cycle;Max_cycle;Signal;HPM_P1;HPM_P2
2022/05/19 00:00:01;;;;;;;33.40;21.95;;;22.50;99.90;;;;;;5057082;28;20033;-76
2022/05/19 00:02:27;;;;;;;35.65;24.00;;;22.50;99.90;;;;;;5028451;28;20397;-76
2022/05/19 00:04:54;;;;;;;33.53;23.38;;;22.50;99.90;;;;;;5028275;28;20362;-76
2022/05/19 00:07:21;;;;;;;32.00;24.25;;;22.50;99.90;;;;;;5007587;28;20393;-76
2022/05/19 00:09:47;;;;;;;32.80;24.75;;;22.50;99.90;;;;;;5031874;28;20064;-76
2022/05/19 00:12:18;;;;;;;38.53;22.83;;;22.40;99.90;;;;;;5025839;28;20057;-75
2022/05/19 00:14:44;;;;;;;29.88;23.25;;;22.40;99.90;;;;;;5023483;28;20053;-75
2022/05/19 00:17:10;;;;;;;32.75;23.75;;;22.40;99.90;;;;;;5023320;28;20036;-74
2022/05/19 00:19:36;;;;;;;32.67;23.40;;;22.50;99.90;;;;;;5021823;28;20044;-75
2022/05/19 00:22:02;;;;;;;29.27;23.85;;;22.40;99.90;;;;;;5022678;28;20034;-73
2022/05/19 00:24:29;;;;;;;37.25;23.23;;;22.40;99.90;;;;;;5026035;28;20022;-74
2022/05/19 00:26:55;;;;;;;34.85;21.95;;;22.40;99.90;;;;;;5022974;28;20533;-74
2022/05/19 00:29:22;;;;;;;34.88;22.38;;;22.30;99.90;;;;;;5051877;28;20026;-74
2022/05/19 00:31:48;;;;;;;38.00;24.20;;;22.40;99.90;;;;;;5029590;28;20048;-74
2022/05/19 00:34:16;;;;;;;36.08;23.00;;;22.40;99.90;;;;;;5028221;28;20033;-75
2022/05/19 00:36:43;;;;;;;35.75;24.30;;;22.30;99.90;;;;;;5034106;28;20045;-74
2022/05/19 00:39:10;;;;;;;29.83;22.13;;;22.40;99.90;;;;;;5036392;28;20037;-74
2022/05/19 00:41:42;;;;;;;30.13;24.13;;;22.40;99.90;;;;;;5029471;28;20039;-76
2022/05/19 00:44:08;;;;;;;34.90;23.70;;;22.40;99.90;;;;;;5038871;28;20065;-75
2022/05/19 00:46:43;;;;;;;31.60;22.23;;;22.40;99.90;;;;;;5019098;28;20065;-75
2022/05/19 00:49:21;;;;;;;38.85;24.67;;;22.40;99.90;;;;;;5038575;28;20033;-75
2022/05/19 00:52:01;;;;;;;35.72;23.38;;;22.30;99.90;;;;;;5024691;28;20041;-74
2022/05/19 00:54:34;;;;;;;31.40;24.02;;;22.30;99.90;;;;;;5038685;28;20377;-74
2022/05/19 00:57:28;;;;;;;29.58;21.98;;;22.30;99.90;;;;;;5039878;28;20038;-74
2022/05/19 00:59:59;;;;;;;27.83;23.42;;;22.40;99.90;;;;;;5022646;28;20033;-75
2022/05/19 01:02:33;;;;;;;34.38;23.40;;;22.40;99.90;;;;;;5019831;28;20124;-74
2022/05/19 01:05:06;;;;;;;33.67;23.08;;;22.40;99.90;;;;;;5044473;28;20064;-75
2022/05/19 01:08:12;;;;;;;33.55;22.95;;;22.40;99.90;;;;;;5021517;28;20045;-75
2022/05/19 01:10:40;;;;;;;36.75;23.33;;;22.50;99.90;;;;;;5023059;28;20049;-74
2022/05/19 01:13:08;;;;;;;34.28;22.15;;;22.40;99.90;;;;;;5025268;28;20037;-74
2022/05/19 01:15:39;;;;;;;30.73;22.73;;;22.40;99.90;;;;;;5022673;28;20041;-75
2022/05/19 01:18:05;;;;;;;34.10;23.15;;;22.40;99.90;;;;;;5023538;28;20560;-74
2022/05/19 01:20:31;;;;;;;39.95;25.20;;;22.50;99.90;;;;;;5035524;28;20536;-73
2022/05/19 01:23:13;;;;;;;35.42;25.38;;;22.50;99.90;;;;;;5025382;28;20064;-75
2022/05/19 01:26:11;;;;;;;34.42;24.40;;;22.40;99.90;;;;;;5041816;28;20103;-74
2022/05/19 01:28:38;;;;;;;37.60;26.05;;;22.40;99.90;;;;;;4999020;28;20469;-75
2022/05/19 01:31:04;;;;;;;37.03;24.05;;;22.40;99.90;;;;;;5014786;28;20519;-74
2022/05/19 01:33:30;;;;;;;34.90;25.73;;;22.40;99.90;;;;;;5024874;28;20069;-74
2022/05/19 01:35:57;;;;;;;36.03;26.45;;;22.40;99.90;;;;;;5019293;28;20044;-74
2022/05/19 01:38:33;;;;;;;33.10;24.63;;;22.40;99.90;;;;;;5019442;28;20041;-74
2022/05/19 01:41:21;;;;;;;36.50;26.25;;;22.30;99.90;;;;;;5008466;28;20045;-74
2022/05/19 01:44:14;;;;;;;34.75;25.90;;;22.30;99.90;;;;;;5032861;28;20037;-75
2022/05/19 01:46:41;;;;;;;;;;;22.30;99.90;;;;;;5026831;28;20041;-74
2022/05/19 01:49:22;;;;;;;33.28;25.42;;;22.40;99.90;;;;;;5035316;28;19982;-74
2022/05/19 01:52:06;;;;;;;35.88;27.02;;;22.40;99.90;;;;;;5018914;28;20033;-74
2022/05/19 01:54:44;;;;;;;36.28;27.25;;;22.40;99.90;;;;;;5023582;28;20489;-74
2022/05/19 01:57:18;;;;;;;36.47;26.55;;;22.40;99.90;;;;;;5039508;28;20037;-73
2022/05/19 02:00:04;;;;;;;35.92;27.90;;;22.40;99.90;;;;;;5023812;28;20068;-73
2022/05/19 02:02:47;;;;;;;38.55;27.42;;;22.30;99.90;;;;;;5015404;28;20040;-73
2022/05/19 02:05:47;;;;;;;39.72;27.05;;;22.30;99.90;;;;;;5017598;28;20041;-73
2022/05/19 02:08:22;;;;;;;37.90;27.25;;;22.10;99.90;;;;;;5022367;28;20038;-74
2022/05/19 02:10:51;;;;;;;40.85;28.60;;;22.10;99.90;;;;;;5018152;28;20510;-73
2022/05/19 02:13:18;;;;;;;43.10;28.63;;;22.00;99.90;;;;;;5033876;28;20101;-73
2022/05/19 02:15:46;;;;;;;34.92;25.27;;;21.80;99.90;;;;;;5025853;28;20045;-75
2022/05/19 02:18:15;;;;;;;42.22;29.65;;;21.80;99.90;;;;;;5048088;28;20072;-74
2022/05/19 02:20:43;;;;;;;42.33;28.67;;;21.90;99.90;;;;;;5017044;28;20048;-74
2022/05/19 02:23:11;;;;;;;37.88;28.00;;;21.80;99.90;;;;;;5036971;28;20053;-73
2022/05/19 02:25:45;;;;;;;37.33;27.63;;;21.80;99.90;;;;;;5021950;28;20103;-74
2022/05/19 02:28:36;;;;;;;40.30;29.02;;;21.80;99.90;;;;;;5022684;28;20140;-74
2022/05/19 02:31:02;;;;;;;40.65;27.52;;;21.80;99.90;;;;;;5020506;28;20038;-73
2022/05/19 02:33:30;;;;;;;42.85;26.98;;;21.70;99.90;;;;;;5021986;28;20041;-74
2022/05/19 02:35:57;;;;;;;40.78;26.70;;;21.80;99.90;;;;;;5035403;28;20576;-74
2022/05/19 02:38:24;;;;;;;37.97;28.73;;;21.70;99.90;;;;;;5018864;28;20041;-73
2022/05/19 02:40:50;;;;;;;35.47;25.10;;;21.60;99.90;;;;;;5021865;28;20041;-75
2022/05/19 02:43:18;;;;;;;39.45;27.27;;;21.70;99.90;;;;;;5020561;28;20048;-74
2022/05/19 02:45:45;;;;;;;35.78;25.10;;;21.70;99.90;;;;;;5054693;28;20065;-74
2022/05/19 02:48:12;;;;;;;37.83;27.10;;;21.70;99.90;;;;;;5017468;28;20042;-74
2022/05/19 02:50:42;;;;;;;35.50;27.17;;;21.60;99.90;;;;;;5026038;28;20056;-74
2022/05/19 02:53:10;;;;;;;39.95;27.27;;;21.60;99.90;;;;;;5022500;28;20041;-74
2022/05/19 02:55:36;;;;;;;41.50;27.42;;;21.50;99.90;;;;;;5037050;28;20049;-74
2022/05/19 02:58:03;;;;;;;40.83;30.35;;;21.50;99.90;;;;;;5021878;28;20421;-74
2022/05/19 03:00:30;;;;;;;39.00;26.95;;;21.50;99.90;;;;;;5021109;28;20068;-74
2022/05/19 03:02:57;;;;;;;40.67;27.50;;;21.40;99.90;;;;;;5016500;28;20146;-73
2022/05/19 03:05:27;;;;;;;41.60;28.75;;;21.40;99.90;;;;;;5024373;28;20102;-73
2022/05/19 03:07:53;;;;;;;39.78;28.95;;;21.30;99.90;;;;;;5034868;28;20121;-74
2022/05/19 03:10:19;;;;;;;38.97;29.35;;;21.20;99.90;;;;;;5020470;28;20053;-73
2022/05/19 03:12:46;;;;;;;37.53;28.30;;;21.20;99.90;;;;;;5033920;28;20485;-74
2022/05/19 03:15:13;;;;;;;45.20;29.98;;;21.20;99.90;;;;;;5019666;28;20173;-74
2022/05/19 03:17:39;;;;;;;38.72;28.63;;;21.20;99.90;;;;;;5020974;28;20046;-74
2022/05/19 03:20:10;;;;;;;42.25;29.45;;;21.20;99.90;;;;;;5033533;28;20046;-74
2022/05/19 03:22:38;;;;;;;45.78;32.47;;;21.20;99.90;;;;;;5032060;28;20049;-74
2022/05/19 03:25:06;;;;;;;47.50;33.42;;;21.20;99.90;;;;;;5020483;28;20481;-73
2022/05/19 03:27:33;;;;;;;46.55;32.70;;;21.20;99.90;;;;;;5032307;28;20374;-74
2022/05/19 03:30:00;;;;;;;50.85;35.13;;;21.30;99.90;;;;;;5019660;28;20038;-75
2022/05/19 03:32:26;;;;;;;51.00;35.03;;;21.30;99.90;;;;;;5018175;28;20034;-73
2022/05/19 03:34:52;;;;;;;54.58;36.58;;;21.40;99.90;;;;;;5020271;28;20046;-74
2022/05/19 03:37:17;;;;;;;48.28;33.70;;;21.40;99.90;;;;;;5020201;28;20073;-73
2022/05/19 03:39:44;;;;;;;49.28;33.75;;;21.40;99.90;;;;;;5023689;28;20463;-73
2022/05/19 03:42:10;;;;;;;51.72;36.00;;;21.40;99.90;;;;;;5038686;28;20045;-73
2022/05/19 03:44:37;;;;;;;51.15;35.15;;;21.50;99.90;;;;;;5023476;28;20037;-73
2022/05/19 03:47:04;;;;;;;52.63;35.80;;;21.50;99.90;;;;;;5022855;28;20128;-74
2022/05/19 03:49:31;;;;;;;45.30;34.33;;;21.50;99.90;;;;;;5038655;28;20443;-74
2022/05/19 03:51:57;;;;;;;53.13;35.05;;;21.50;99.90;;;;;;5031804;28;20036;-73
2022/05/19 03:54:23;;;;;;;54.28;35.42;;;21.60;99.90;;;;;;5019467;28;20411;-73
2022/05/19 03:56:49;;;;;;;60.65;37.97;;;21.60;99.90;;;;;;5028265;28;20435;-75
2022/05/19 03:59:16;;;;;;;50.40;35.15;;;21.50;99.90;;;;;;5022565;28;20069;-74
2022/05/19 04:01:42;;;;;;;48.35;36.15;;;21.40;99.90;;;;;;5024368;28;20038;-74
2022/05/19 04:04:08;;;;;;;51.15;34.10;;;21.40;99.90;;;;;;5038727;28;20041;-75
2022/05/19 04:06:35;;;;;;;45.78;33.35;;;21.30;99.90;;;;;;5024195;28;20386;-75
2022/05/19 04:09:03;;;;;;;54.35;34.40;;;21.30;99.90;;;;;;5021339;28;20046;-73
2022/05/19 04:11:29;;;;;;;50.83;33.03;;;21.30;99.90;;;;;;5041229;28;20042;-74
2022/05/19 04:13:56;;;;;;;50.67;33.72;;;21.40;99.90;;;;;;5043463;28;20080;-74
2022/05/19 04:16:22;;;;;;;46.85;32.30;;;21.40;99.90;;;;;;5021667;28;21485;-74
2022/05/19 04:18:49;;;;;;;46.03;32.97;;;21.40;99.90;;;;;;5034773;28;20048;-74
2022/05/19 04:21:15;;;;;;;50.65;34.90;;;21.40;99.90;;;;;;5023483;28;20042;-74
2022/05/19 04:23:41;;;;;;;48.28;33.17;;;21.30;99.90;;;;;;5023007;28;20041;-73
2022/05/19 04:26:07;;;;;;;49.17;34.58;;;21.40;99.90;;;;;;5032687;28;20091;-75
2022/05/19 04:28:33;;;;;;;51.88;35.20;;;21.40;99.90;;;;;;5036876;28;20243;-75
2022/05/19 04:31:00;;;;;;;48.67;33.90;;;21.40;99.90;;;;;;5025260;28;20451;-74
2022/05/19 04:33:28;;;;;;;48.00;31.52;;;21.40;99.90;;;;;;5035118;28;20042;-73
2022/05/19 04:35:54;;;;;;;45.97;33.30;;;21.40;99.90;;;;;;5039046;28;20065;-74
2022/05/19 04:38:21;;;;;;;49.25;33.60;;;21.40;99.90;;;;;;5024791;28;20090;-73
2022/05/19 04:40:49;;;;;;;39.95;30.25;;;21.40;99.90;;;;;;5036975;28;20499;-74
2022/05/19 04:43:23;;;;;;;40.28;28.70;;;21.40;99.90;;;;;;5018861;28;20069;-74
2022/05/19 04:45:51;;;;;;;38.97;28.05;;;21.40;99.90;;;;;;5055155;28;20038;-73
2022/05/19 04:48:18;;;;;;;37.92;27.02;;;21.40;99.90;;;;;;5036960;28;20126;-73
2022/05/19 04:50:45;;;;;;;38.03;26.33;;;21.40;99.90;;;;;;5036654;28;20033;-74
2022/05/19 04:53:13;;;;;;;35.85;24.90;;;21.40;99.90;;;;;;5019897;28;20034;-74
2022/05/19 04:55:39;;;;;;;38.28;24.98;;;21.40;99.90;;;;;;5037465;28;20041;-74
2022/05/19 04:58:06;;;;;;;34.58;23.67;;;21.40;99.90;;;;;;5036207;28;20053;-75
2022/05/19 05:00:33;;;;;;;33.63;23.08;;;21.40;99.90;;;;;;5017543;28;20034;-74
2022/05/19 05:02:59;;;;;;;32.45;22.70;;;21.40;99.90;;;;;;5019010;28;20108;-74
2022/05/19 05:05:25;;;;;;;35.90;23.42;;;21.50;99.90;;;;;;5024870;28;20115;-74
2022/05/19 05:07:51;;;;;;;39.42;22.75;;;21.40;99.90;;;;;;5018781;28;20040;-74
2022/05/19 05:10:17;;;;;;;29.85;22.70;;;21.50;99.90;;;;;;5023350;28;20041;-75
2022/05/19 05:12:43;;;;;;;29.95;21.83;;;21.60;99.90;;;;;;5022023;28;20045;-74
2022/05/19 05:15:10;;;;;;;33.70;22.75;;;21.60;99.90;;;;;;5021744;28;20843;-74
2022/05/19 05:17:37;;;;;;;31.58;21.88;;;21.70;99.90;;;;;;5006662;28;20108;-74
2022/05/19 05:20:04;;;;;;;35.50;22.42;;;21.70;99.90;;;;;;5041932;28;20069;-73
2022/05/19 05:22:34;;;;;;;35.17;21.95;;;21.70;99.90;;;;;;5022920;28;20045;-75
2022/05/19 05:25:01;;;;;;;38.75;23.17;;;21.70;99.90;;;;;;5008033;28;20489;-74
2022/05/19 05:27:27;;;;;;;31.20;21.40;;;21.80;99.90;;;;;;5026070;28;20482;-75
2022/05/19 05:29:54;;;;;;;33.67;22.17;;;21.80;99.90;;;;;;5021973;28;20042;-74
2022/05/19 05:32:20;;;;;;;34.38;23.08;;;21.80;99.90;;;;;;5035919;28;20069;-74
2022/05/19 05:34:46;;;;;;;33.53;22.52;;;21.80;99.90;;;;;;5022510;28;20049;-73
2022/05/19 05:37:13;;;;;;;31.83;20.77;;;21.80;99.90;;;;;;5021504;28;20083;-75
2022/05/19 05:39:40;;;;;;;33.30;21.83;;;21.80;99.90;;;;;;5025248;28;20124;-75
2022/05/19 05:42:06;;;;;;;31.73;21.88;;;21.90;99.90;;;;;;5022289;28;20045;-74
2022/05/19 05:44:34;;;;;;;33.60;21.27;;;21.90;99.90;;;;;;5022182;28;20034;-75
2022/05/19 05:47:00;;;;;;;31.05;19.90;;;21.90;99.90;;;;;;5016309;28;20076;-75
2022/05/19 05:49:26;;;;;;;30.08;20.63;;;22.00;99.90;;;;;;5024693;28;20050;-74
2022/05/19 05:51:52;;;;;;;31.27;20.45;;;22.00;99.90;;;;;;5019563;28;20042;-75
2022/05/19 05:54:20;;;;;;;26.17;18.40;;;22.00;99.90;;;;;;5021281;28;20041;-74
2022/05/19 05:56:46;;;;;;;27.10;17.30;;;22.10;99.90;;;;;;5027062;28;20346;-74
2022/05/19 05:59:13;;;;;;;27.83;18.30;;;22.10;99.90;;;;;;5025159;28;20045;-75
2022/05/19 06:01:39;;;;;;;32.17;18.67;;;22.10;99.90;;;;;;5034747;28;20124;-73
2022/05/19 06:04:05;;;;;;;30.00;18.27;;;22.20;99.90;;;;;;5018830;28;20046;-74
2022/05/19 06:06:32;;;;;;;27.60;16.67;;;22.20;99.90;;;;;;5019658;28;20041;-73
2022/05/19 06:08:58;;;;;;;25.20;16.70;;;22.40;99.90;;;;;;5018218;28;20037;-74
2022/05/19 06:11:25;;;;;;;27.52;19.25;;;22.40;99.90;;;;;;5023937;28;20037;-74
2022/05/19 06:13:52;;;;;;;26.08;18.13;;;22.50;99.90;;;;;;5018884;28;20033;-74
2022/05/19 06:16:19;;;;;;;27.20;18.85;;;22.50;99.90;;;;;;5020024;28;20369;-74
2022/05/19 06:18:45;;;;;;;24.75;18.20;;;22.50;99.90;;;;;;5024060;28;20049;-73
2022/05/19 06:21:11;;;;;;;25.65;17.92;;;22.50;99.90;;;;;;5041582;28;20036;-72
2022/05/19 06:23:39;;;;;;;28.88;17.73;;;22.50;99.90;;;;;;5021630;28;20386;-74
2022/05/19 06:26:05;;;;;;;29.30;17.60;;;22.50;99.90;;;;;;5020530;28;20047;-73
2022/05/19 06:28:31;;;;;;;22.00;15.93;;;22.50;99.90;;;;;;5019635;28;20041;-73
2022/05/19 06:30:58;;;;;;;29.30;17.95;;;22.50;99.90;;;;;;5038937;28;20044;-74
2022/05/19 06:33:27;;;;;;;25.58;17.17;;;22.50;99.90;;;;;;5017708;28;20042;-74
2022/05/19 06:35:53;;;;;;;25.15;16.17;;;22.60;99.90;;;;;;5021502;28;20034;-73
2022/05/19 06:38:20;;;;;;;35.13;22.25;;;22.70;99.90;;;;;;5022193;28;20025;-74
2022/05/19 06:40:46;;;;;;;30.17;16.80;;;22.70;99.90;;;;;;5018226;28;20639;-75
2022/05/19 06:43:14;;;;;;;21.60;15.20;;;22.60;99.90;;;;;;5025635;28;20042;-74
2022/05/19 06:45:40;;;;;;;24.98;15.77;;;22.60;99.90;;;;;;5035562;28;20128;-75
2022/05/19 06:48:07;;;;;;;24.25;14.40;;;22.60;99.90;;;;;;5023835;28;20080;-74
2022/05/19 06:50:33;;;;;;;24.63;14.60;;;22.60;99.90;;;;;;5017806;28;20041;-74
2022/05/19 06:53:03;;;;;;;22.73;14.05;;;22.60;99.90;;;;;;5024357;28;20528;-74
2022/05/19 06:55:31;;;;;;;25.85;15.20;;;22.70;99.90;;;;;;5029158;28;20042;-74
2022/05/19 06:57:59;;;;;;;23.35;14.05;;;22.70;99.90;;;;;;5021274;28;20129;-74
2022/05/19 07:00:28;;;;;;;26.60;13.13;;;22.70;99.90;;;;;;5023753;28;20600;-74
2022/05/19 07:02:57;;;;;;;26.42;12.45;;;22.80;99.90;;;;;;5024919;28;20063;-75
2022/05/19 07:05:27;;;;;;;21.02;13.13;;;23.00;99.90;;;;;;5025669;28;20058;-75
2022/05/19 07:07:53;;;;;;;22.17;13.00;;;23.10;99.90;;;;;;5021872;28;20095;-74
2022/05/19 07:10:22;;;;;;;32.33;13.10;;;23.20;99.90;;;;;;5020379;28;20417;-73
2022/05/19 07:12:49;;;;;;;39.78;14.23;;;23.30;99.90;;;;;;5038899;28;20037;-75
2022/05/19 07:15:19;;;;;;;38.33;15.52;;;23.40;99.90;;;;;;5037141;28;20091;-74
2022/05/19 07:17:45;;;;;;;28.58;13.07;;;23.40;99.90;;;;;;5023458;28;20046;-74
2022/05/19 07:22:57;;;;;;;22.73;11.88;;;23.50;99.90;;;;;;5027622;28;20048;-73
2022/05/19 07:25:23;;;;;;;25.00;12.07;;;23.40;99.90;;;;;;5018450;28;20099;-73
2022/05/19 07:27:49;;;;;;;24.13;12.20;;;23.50;99.90;;;;;;5047964;28;20048;-74
2022/05/19 07:30:16;;;;;;;26.65;12.40;;;23.60;99.90;;;;;;5012241;28;20041;-74
2022/05/19 07:32:42;;;;;;;28.92;12.18;;;23.60;99.90;;;;;;5029553;28;20429;-74
2022/05/19 07:35:11;;;;;;;23.17;12.07;;;23.70;99.90;;;;;;5038317;28;20557;-73
2022/05/19 07:37:38;;;;;;;28.40;12.07;;;23.80;99.90;;;;;;5022577;28;20072;-75
2022/05/19 07:40:06;;;;;;;27.20;12.70;;;23.80;99.90;;;;;;5026021;28;20104;-73
2022/05/19 07:42:32;;;;;;;22.40;12.02;;;23.80;99.90;;;;;;5053714;28;20056;-74
2022/05/19 07:44:58;;;;;;;25.15;11.07;;;23.70;99.90;;;;;;5026695;28;20041;-75
2022/05/19 07:47:25;;;;;;;24.52;12.85;;;23.70;99.90;;;;;;5024440;28;20067;-75
2022/05/19 07:49:54;;;;;;;23.90;14.10;;;23.80;99.90;;;;;;5027146;28;20457;-74
2022/05/19 07:52:21;;;;;;;23.08;13.02;;;23.60;99.90;;;;;;5026779;28;20931;-76
2022/05/19 07:54:47;;;;;;;25.17;12.70;;;23.50;99.90;;;;;;5039999;28;20926;-73
2022/05/19 07:57:15;;;;;;;22.35;12.60;;;23.60;99.90;;;;;;5028562;28;20033;-74
2022/05/19 07:59:41;;;;;;;23.73;12.48;;;23.80;99.90;;;;;;5023694;28;20045;-73
2022/05/19 08:02:07;;;;;;;19.48;11.98;;;24.00;99.90;;;;;;5043270;28;20041;-72
2022/05/19 08:04:34;;;;;;;22.98;12.40;;;24.10;99.90;;;;;;5024605;28;20393;-74
2022/05/19 08:07:02;;;;;;;21.30;11.25;;;24.20;99.90;;;;;;5037981;28;20552;-75
2022/05/19 08:18:12;;;;;;;18.42;9.90;;;24.50;99.90;;;;;;5014342;28;20042;-74
2022/05/19 08:20:43;;;;;;;21.00;9.85;;;24.50;99.90;;;;;;5042265;28;20041;-74
2022/05/19 08:23:14;;;;;;;17.88;10.25;;;24.60;99.90;;;;;;5034150;28;20089;-75
2022/05/19 08:25:40;;;;;;;18.67;9.93;;;24.70;99.90;;;;;;5030012;28;20045;-73
2022/05/19 08:28:06;;;;;;;21.33;9.07;;;24.60;99.90;;;;;;5036390;28;20041;-73
2022/05/19 08:30:32;;;;;;;17.10;9.18;;;24.50;99.90;;;;;;5026364;28;20125;-73
2022/05/19 08:32:58;;;;;;;22.83;10.35;;;24.80;99.90;;;;;;5004481;28;20124;-74
2022/05/19 08:35:25;;;;;;;19.35;9.65;;;24.80;99.90;;;;;;5018072;28;20045;-75
2022/05/19 08:37:51;;;;;;;19.20;8.05;;;24.90;99.90;;;;;;5022081;28;20120;-73
2022/05/19 08:40:20;;;;;;;22.42;9.75;;;25.00;99.90;;;;;;5004120;28;20038;-74
2022/05/19 08:42:54;;;;;;;17.55;8.23;;;25.10;99.90;;;;;;5022820;28;20069;-75
2022/05/19 08:45:30;;;;;;;18.35;8.98;;;25.10;99.90;;;;;;5024303;28;20044;-74
2022/05/19 08:48:07;;;;;;;20.63;8.30;;;25.30;99.90;;;;;;5024480;28;20128;-74
2022/05/19 08:51:03;;;;;;;16.38;7.85;;;25.30;99.90;;;;;;5024331;28;20033;-75
2022/05/19 08:53:34;;;;;;;17.30;7.47;;;25.30;99.90;;;;;;5011720;28;20046;-75
2022/05/19 08:56:08;;;;;;;17.55;6.80;;;25.40;99.90;;;;;;5057407;28;20037;-75
2022/05/19 08:59:12;;;;;;;16.95;8.13;;;25.50;99.90;;;;;;5043625;28;20496;-76
2022/05/19 09:01:59;;;;;;;22.75;8.38;;;25.60;99.90;;;;;;5011078;28;20045;-75
2022/05/19 09:04:41;;;;;;;17.98;7.68;;;25.70;99.90;;;;;;5018842;28;20049;-74
2022/05/19 09:07:57;;;;;;;20.50;7.78;;;25.80;99.90;;;;;;5041120;28;20370;-79
2022/05/19 09:10:28;;;;;;;20.42;8.02;;;26.00;99.90;;;;;;5029958;28;20060;-79
2022/05/19 09:13:25;;;;;;;20.10;7.97;;;26.20;99.90;;;;;;5031262;28;20052;-80
2022/05/19 09:15:53;;;;;;;19.52;7.15;;;26.40;99.90;;;;;;5032366;28;20034;-79
2022/05/19 09:18:29;;;;;;;15.38;6.63;;;26.50;99.90;;;;;;5041078;28;20038;-78
2022/05/19 09:20:57;;;;;;;16.80;7.13;;;26.60;99.90;;;;;;5015819;28;20025;-79
2022/05/19 09:23:24;;;;;;;19.83;7.28;;;26.70;99.90;;;;;;5033124;28;20047;-79
2022/05/19 09:26:15;;;;;;;22.13;7.95;;;26.80;99.90;;;;;;5034799;28;20049;-79
2022/05/19 09:28:45;;;;;;;24.98;8.15;;;26.90;99.90;;;;;;5032206;28;20045;-79
2022/05/19 09:31:33;;;;;;;22.75;7.50;;;27.00;99.90;;;;;;5041568;28;20076;-80
2022/05/19 09:33:59;;;;;;;21.90;8.07;;;27.20;99.90;;;;;;5047479;28;20124;-79
2022/05/19 09:36:25;;;;;;;21.63;7.72;;;27.00;99.90;;;;;;5034003;28;20056;-79
2022/05/19 09:38:59;;;;;;;20.27;7.07;;;27.10;99.90;;;;;;5028871;28;20057;-80
2022/05/19 09:41:40;;;;;;;26.98;7.38;;;27.10;99.90;;;;;;5060530;28;21251;-80
2022/05/19 09:44:13;;;;;;;22.27;6.70;;;27.30;99.90;;;;;;5040897;28;20034;-79
2022/05/19 09:46:52;;;;;;;19.27;7.75;;;27.00;99.90;;;;;;5042087;28;20044;-79
2022/05/19 09:49:24;;;;;;;13.98;6.63;;;26.80;99.90;;;;;;5031075;28;20029;-79
2022/05/19 09:51:51;;;;;;;16.60;6.13;;;27.10;99.90;;;;;;5040663;28;20044;-80
2022/05/19 09:54:17;;;;;;;19.75;6.22;;;27.30;99.90;;;;;;5056940;28;20034;-80
2022/05/19 09:56:48;;;;;;;17.00;6.63;;;27.20;99.90;;;;;;5038177;28;20045;-78
2022/05/19 09:59:25;;;;;;;14.25;6.22;;;27.40;99.90;;;;;;5056710;28;20052;-78
2022/05/19 10:02:11;;;;;;;19.05;6.50;;;27.40;99.90;;;;;;5045891;28;20041;-79
2022/05/19 10:04:41;;;;;;;16.83;6.78;;;27.50;99.90;;;;;;5057217;28;20120;-79
2022/05/19 10:07:18;;;;;;;15.88;5.97;;;27.50;99.90;;;;;;5027557;28;20108;-79
2022/05/19 10:09:47;;;;;;;17.83;7.20;;;27.50;99.90;;;;;;5062202;28;20052;-78
2022/05/19 10:12:22;;;;;;;18.65;7.10;;;27.70;99.90;;;;;;5027442;28;20095;-79
2022/05/19 10:14:58;;;;;;;16.92;7.30;;;27.70;99.90;;;;;;5038296;28;20092;-79
2022/05/19 10:17:39;;;;;;;18.05;7.30;;;27.80;99.90;;;;;;5035705;28;20060;-79
2022/05/19 10:20:16;;;;;;;17.33;7.57;;;27.70;99.90;;;;;;5022131;28;20052;-78
2022/05/19 10:22:42;;;;;;;14.85;7.32;;;27.80;99.90;;;;;;5040684;28;20041;-77
2022/05/19 10:25:38;;;;;;;17.08;7.72;;;27.70;99.90;;;;;;5032626;28;20048;-78
2022/05/19 10:31:12;;;;;;;17.38;7.20;;;27.70;99.90;;;;;;5023379;28;20056;-77
2022/05/19 10:33:58;;;;;;;23.42;7.53;;;27.80;99.90;;;;;;5058992;28;20046;-79
2022/05/19 10:36:47;;;;;;;23.52;7.65;;;27.90;99.90;;;;;;5019507;28;20037;-77
2022/05/19 10:39:19;;;;;;;22.17;8.00;;;27.90;99.90;;;;;;5019071;28;20132;-78
2022/05/19 10:42:21;;;;;;;18.77;7.53;;;27.90;99.90;;;;;;5024102;28;20130;-79
2022/05/19 10:45:07;;;;;;;16.53;7.47;;;28.10;99.90;;;;;;5026441;28;20061;-79
2022/05/19 10:47:34;;;;;;;21.52;8.88;;;28.20;99.90;;;;;;5027611;28;20426;-80
2022/05/19 10:50:05;;;;;;;18.58;9.10;;;28.20;99.90;;;;;;5043673;28;20544;-78
2022/05/19 10:52:41;;;;;;;16.17;7.57;;;28.60;99.90;;;;;;5045652;28;20053;-79
2022/05/19 10:55:24;;;;;;;16.38;7.95;;;28.60;99.90;;;;;;5027312;28;20152;-78
2022/05/19 10:58:17;;;;;;;22.88;7.90;;;28.70;99.90;;;;;;5028944;28;20083;-78
2022/05/19 11:00:49;;;;;;;17.90;8.07;;;28.80;99.90;;;;;;5042183;28;20049;-78
2022/05/19 11:03:34;;;;;;;17.42;8.13;;;28.80;99.90;;;;;;5022991;28;20049;-79
2022/05/19 11:06:06;;;;;;;24.67;7.32;;;29.00;99.90;;;;;;5023991;28;20022;-79
2022/05/19 11:09:22;;;;;;;23.20;7.05;;;28.90;99.90;;;;;;5025042;28;20045;-78
2022/05/19 11:11:59;;;;;;;20.13;8.00;;;29.10;99.90;;;;;;5023248;28;20049;-78
2022/05/19 11:14:43;;;;;;;18.00;8.38;;;29.10;99.90;;;;;;5056988;28;20057;-78
2022/05/19 11:17:42;;;;;;;18.20;7.88;;;29.40;99.90;;;;;;5023287;28;20038;-78
2022/05/19 11:20:28;;;;;;;18.27;8.10;;;29.50;99.90;;;;;;5037058;28;20052;-79
2022/05/19 11:23:05;;;;;;;16.90;7.63;;;29.50;99.90;;;;;;5036322;28;20124;-78
2022/05/19 11:26:24;;;;;;;19.13;8.27;;;29.80;99.90;;;;;;5025638;28;20038;-80
2022/05/19 11:29:03;;;;;;;17.88;7.90;;;29.70;99.90;;;;;;5023833;28;20120;-79
2022/05/19 11:31:54;;;;;;;25.75;8.98;;;30.20;99.90;;;;;;5012641;28;20749;-81
2022/05/19 11:34:22;;;;;;;18.17;8.30;;;29.90;99.90;;;;;;5057320;28;20050;-78
2022/05/19 11:37:04;;;;;;;18.88;7.80;;;29.60;99.90;;;;;;5049877;28;20051;-79
2022/05/19 11:39:47;;;;;;;15.90;7.10;;;30.00;99.90;;;;;;5057207;28;20048;-79
2022/05/19 11:42:21;;;;;;;19.55;6.95;;;29.80;99.90;;;;;;5039320;28;20409;-79
2022/05/19 11:44:48;;;;;;;18.05;6.88;;;30.00;99.90;;;;;;5056634;28;20052;-79
2022/05/19 11:56:02;;;;;;;15.40;7.30;;;30.90;99.70;;;;;;5034537;28;20062;-80
2022/05/19 11:58:35;;;;;;;15.25;7.43;;;31.20;99.40;;;;;;5029659;28;20036;-80
2022/05/19 12:01:11;;;;;;;16.15;6.68;;;31.30;98.90;;;;;;5028980;28;20071;-80
2022/05/19 12:03:45;;;;;;;16.80;7.20;;;31.30;98.80;;;;;;5034046;28;20037;-77
2022/05/19 12:06:17;;;;;;;20.77;6.90;;;31.30;98.80;;;;;;5037350;28;20036;-77
2022/05/19 12:08:46;;;;;;;18.38;7.25;;;31.30;98.70;;;;;;5028991;28;20072;-77
2022/05/19 12:11:36;;;;;;;19.48;7.60;;;31.40;98.70;;;;;;5042173;28;20038;-78
2022/05/19 12:14:33;;;;;;;16.83;7.32;;;31.10;98.80;;;;;;5029242;28;20070;-77
2022/05/19 12:16:59;;;;;;;18.88;7.18;;;31.10;98.80;;;;;;5033150;28;20038;-78
2022/05/19 12:19:43;;;;;;;16.17;7.10;;;31.50;98.70;;;;;;5043308;28;20128;-78
2022/05/19 12:22:18;;;;;;;12.77;6.35;;;31.60;98.40;;;;;;5048274;28;20040;-78
2022/05/19 12:24:54;;;;;;;16.30;7.07;;;31.60;98.40;;;;;;5025687;28;20034;-78
2022/05/19 12:27:24;;;;;;;20.40;6.95;;;31.60;98.40;;;;;;5028383;28;20034;-77
2022/05/19 12:31:56;;;;;;;18.90;6.78;;;31.60;98.10;;;;;;5058628;28;20609;-77
2022/05/19 12:33:15;;;;;;;18.35;6.85;;;31.40;98.30;;;;;;5018906;28;20567;-78
2022/05/19 12:35:47;;;;;;;16.27;6.70;;;31.50;98.30;;;;;;5020164;28;20033;-77
2022/05/19 12:38:37;;;;;;;20.42;6.60;;;31.80;98.10;;;;;;5057687;28;20040;-77
2022/05/19 12:41:09;;;;;;;18.67;7.50;;;31.90;98.20;;;;;;5003862;28;20044;-78
2022/05/19 12:43:42;;;;;;;16.70;7.25;;;31.20;98.40;;;;;;5022568;28;20061;-80
2022/05/19 12:46:31;;;;;;;17.35;6.43;;;31.30;98.70;;;;;;5035214;28;20041;-76
2022/05/19 12:49:18;;;;;;;14.32;6.70;;;31.50;98.30;;;;;;5020878;28;20046;-74
2022/05/19 12:51:55;;;;;;;13.95;6.07;;;31.40;98.50;;;;;;5029417;28;20048;-74
2022/05/19 12:54:24;;;;;;;19.45;6.32;;;31.50;98.50;;;;;;5013938;28;20815;-75
2022/05/19 12:57:09;;;;;;;17.85;6.80;;;31.60;98.30;;;;;;5015658;28;20033;-76
2022/05/19 12:59:44;;;;;;;12.75;5.53;;;31.50;98.30;;;;;;5013505;28;20053;-75
2022/05/19 13:02:30;;;;;;;15.32;5.82;;;31.80;97.90;;;;;;5018074;28;20053;-75
2022/05/19 13:05:16;;;;;;;21.52;6.25;;;31.60;98.10;;;;;;5018057;28;20051;-76
2022/05/19 13:07:47;;;;;;;16.17;5.97;;;31.90;98.10;;;;;;5017421;28;20038;-77
2022/05/19 13:10:33;;;;;;;16.75;5.30;;;31.80;98.30;;;;;;5048052;28;20073;-77
2022/05/19 13:13:04;;;;;;;16.85;5.40;;;32.00;98.10;;;;;;5038154;28;20116;-77
2022/05/19 13:15:35;;;;;;;15.60;5.28;;;32.20;97.60;;;;;;5032514;28;20445;-76
2022/05/19 13:18:08;;;;;;;15.27;5.20;;;32.20;97.60;;;;;;5026179;28;20064;-77